createdAt,value
2024-05-09T00:00:45.811Z,101359.22
2024-05-09T00:03:14.741Z,101350.91
2024-05-09T00:05:44.226Z,101343.09
2024-05-09T00:08:12.521Z,101321.84
2024-05-09T00:10:41.232Z,101339.25
2024-05-09T00:13:11.240Z,101325.22
2024-05-09T00:15:39.670Z,101334.69
2024-05-09T00:18:08.118Z,101335.97
2024-05-09T00:20:40.043Z,101272.66
2024-05-09T00:23:14.005Z,101335.06
2024-05-09T00:25:46.042Z,101328.16
2024-05-09T00:28:13.645Z,101319.16
2024-05-09T00:30:41.478Z,101337.84
2024-05-09T00:33:10.880Z,101325.38
2024-05-09T00:35:39.568Z,101332.72
2024-05-09T00:38:07.352Z,101345.88
2024-05-09T00:40:43.678Z,101347.13
2024-05-09T00:43:13.719Z,101349.03
2024-05-09T00:45:42.872Z,101345.94
2024-05-09T00:48:15.185Z,101339.13
2024-05-09T00:50:47.179Z,101362.94
2024-05-09T00:53:17.690Z,101361.25
2024-05-09T00:55:47.508Z,101354.34
2024-05-09T00:58:18.424Z,101355.25
2024-05-09T01:00:46.303Z,101344.94
2024-05-09T01:03:15.416Z,101351.69
2024-05-09T01:05:44.625Z,101360.56
2024-05-09T01:08:13.674Z,101364.03
2024-05-09T01:10:45.104Z,101357.72
2024-05-09T01:13:14.336Z,101358.50
2024-05-09T01:15:42.383Z,101367.69
2024-05-09T01:18:14.364Z,101371.63
2024-05-09T01:20:44.899Z,101361.84
2024-05-09T01:23:15.731Z,101378.38
2024-05-09T01:25:46.504Z,101376.00
2024-05-09T01:28:15.312Z,101371.75
2024-05-09T01:30:43.226Z,101383.09
2024-05-09T01:33:12.228Z,101390.94
2024-05-09T01:35:42.245Z,101391.69
2024-05-09T01:38:13.908Z,101388.47
2024-05-09T01:40:42.069Z,101388.75
2024-05-09T01:43:10.759Z,101374.34
2024-05-09T01:45:40.428Z,101377.97
2024-05-09T01:48:09.499Z,101383.03
2024-05-09T01:50:40.963Z,101377.56
2024-05-09T01:53:11.692Z,101392.50
2024-05-09T01:55:39.606Z,101392.19
2024-05-09T01:58:07.722Z,101398.56
2024-05-09T02:00:40.294Z,101410.41
2024-05-09T02:03:15.406Z,101407.06
2024-05-09T02:05:46.949Z,101414.16
2024-05-09T02:08:18.154Z,101411.78
2024-05-09T02:10:47.803Z,101409.44
2024-05-09T02:13:16.739Z,101415.84
2024-05-09T02:15:44.771Z,101414.88
2024-05-09T02:18:13.436Z,101419.13
2024-05-09T02:20:42.369Z,101412.50
2024-05-09T02:23:10.874Z,101425.91
2024-05-09T02:25:38.924Z,101423.25
2024-05-09T02:28:06.454Z,101416.34
2024-05-09T02:30:39.895Z,101419.50
2024-05-09T02:33:12.396Z,101402.00
2024-05-09T02:35:43.435Z,101410.81
2024-05-09T02:38:11.964Z,101409.81
2024-05-09T02:40:40.395Z,101427.72
2024-05-09T02:43:10.829Z,101416.13
2024-05-09T02:45:40.070Z,101422.00
2024-05-09T02:48:12.413Z,101423.63
2024-05-09T02:50:41.091Z,101419.88
2024-05-09T02:53:09.708Z,101432.25
2024-05-09T02:55:42.229Z,101402.28
2024-05-09T02:58:10.911Z,101415.53
2024-05-09T03:00:42.075Z,101393.78
2024-05-09T03:03:14.051Z,101401.09
2024-05-09T03:05:44.255Z,101407.13
2024-05-09T03:08:12.277Z,101387.44
2024-05-09T03:10:40.569Z,101415.81
2024-05-09T03:13:09.393Z,101423.22
2024-05-09T03:15:37.162Z,101415.44
2024-05-09T03:18:06.339Z,101419.66
2024-05-09T03:20:36.029Z,101422.34
2024-05-09T03:23:06.694Z,101422.81
2024-05-09T03:25:34.298Z,101431.34
2024-05-09T03:28:01.870Z,101430.03
2024-05-09T03:30:36.354Z,101427.19
2024-05-09T03:33:18.369Z,101442.22
2024-05-09T03:35:49.178Z,101429.38
2024-05-09T03:38:17.492Z,101438.47
2024-05-09T03:40:47.164Z,101446.94
2024-05-09T03:43:15.819Z,101425.19
2024-05-09T03:45:44.062Z,101451.59
2024-05-09T03:48:12.228Z,101433.69
2024-05-09T03:50:40.485Z,101444.47
2024-05-09T03:53:11.523Z,101447.63
2024-05-09T03:55:39.358Z,101453.06
2024-05-09T03:58:08.368Z,101463.72
2024-05-09T04:00:39.114Z,101468.84
2024-05-09T04:03:10.979Z,101466.72
2024-05-09T04:05:42.181Z,101447.44
2024-05-09T04:08:11.185Z,101464.84
2024-05-09T04:10:39.281Z,101476.56
2024-05-09T04:13:06.607Z,101480.69
2024-05-09T04:15:34.049Z,101476.81
2024-05-09T04:18:02.397Z,101475.16
2024-05-09T04:20:37.620Z,101479.22
2024-05-09T04:23:09.566Z,101490.94
2024-05-09T04:25:37.824Z,101490.19
2024-05-09T04:28:05.880Z,101479.03
2024-05-09T04:30:38.750Z,101493.06
2024-05-09T04:33:12.210Z,101490.19
2024-05-09T04:35:42.763Z,101475.28
2024-05-09T04:38:10.686Z,101493.47
2024-05-09T04:40:38.420Z,101484.81
2024-05-09T04:43:07.493Z,101494.31
2024-05-09T04:45:36.962Z,101490.09
2024-05-09T04:48:05.385Z,101490.38
2024-05-09T04:50:37.035Z,101494.97
2024-05-09T04:53:10.084Z,101502.75
2024-05-09T04:55:39.584Z,101505.56
2024-05-09T04:58:09.954Z,101503.63
2024-05-09T05:00:40.915Z,101517.56
2024-05-09T05:03:14.115Z,101518.47
2024-05-09T05:05:45.327Z,101513.53
2024-05-09T05:08:16.750Z,101506.19
2024-05-09T05:10:46.789Z,101520.41
2024-05-09T05:13:23.256Z,101521.47
2024-05-09T05:15:58.609Z,101527.00
2024-05-09T05:18:28.545Z,101535.09
2024-05-09T05:20:58.851Z,101534.59
2024-05-09T05:23:27.191Z,101525.59
2024-05-09T05:25:55.692Z,101537.00
2024-05-09T05:28:23.545Z,101512.13
2024-05-09T05:30:52.006Z,101532.63
2024-05-09T05:33:20.266Z,101542.97
2024-05-09T05:35:48.294Z,101545.47
2024-05-09T05:38:17.574Z,101543.81
2024-05-09T05:40:46.761Z,101547.88
2024-05-09T05:43:19.004Z,101542.28
2024-05-09T05:45:49.275Z,101547.19
2024-05-09T05:48:17.752Z,101543.34
2024-05-09T05:50:45.921Z,101532.91
2024-05-09T05:53:13.901Z,101547.06
2024-05-09T05:55:41.922Z,101538.25
2024-05-09T05:58:10.976Z,101554.06
2024-05-09T06:00:40.876Z,101560.16
2024-05-09T06:03:10.507Z,101561.22
2024-05-09T06:05:44.415Z,101562.47
2024-05-09T06:08:12.690Z,101573.53
2024-05-09T06:10:41.471Z,101569.38
2024-05-09T06:13:13.974Z,101573.31
2024-05-09T06:15:44.353Z,101571.31
2024-05-09T06:18:12.973Z,101564.91
2024-05-09T06:20:43.728Z,101573.06
2024-05-09T06:23:12.540Z,101569.72
2024-05-09T06:25:40.758Z,101584.44
2024-05-09T06:28:08.194Z,101582.69
2024-05-09T06:30:41.177Z,101585.09
2024-05-09T06:33:14.381Z,101582.84
2024-05-09T06:35:47.147Z,101583.75
2024-05-09T06:38:15.115Z,101596.69
2024-05-09T06:40:44.708Z,101590.97
2024-05-09T06:43:18.336Z,101597.84
2024-05-09T06:45:48.708Z,101592.91
2024-05-09T06:48:22.565Z,101603.19
2024-05-09T06:50:51.647Z,101614.50
2024-05-09T06:53:23.206Z,101608.69
2024-05-09T06:55:52.535Z,101600.41
2024-05-09T06:58:20.666Z,101596.44
2024-05-09T07:00:49.195Z,101597.84
2024-05-09T07:03:18.834Z,101588.34
2024-05-09T07:05:48.810Z,101606.38
2024-05-09T07:08:18.531Z,101604.78
2024-05-09T07:10:47.527Z,101616.88
2024-05-09T07:13:16.022Z,101620.28
2024-05-09T07:15:43.966Z,101616.78
2024-05-09T07:18:17.642Z,101633.44
2024-05-09T07:20:47.767Z,101620.38
2024-05-09T07:23:16.162Z,101638.88
2024-05-09T07:25:44.365Z,101630.94
2024-05-09T07:28:17.014Z,101641.50
2024-05-09T07:30:45.931Z,101611.25
2024-05-09T07:33:18.245Z,101649.91
2024-05-09T07:35:47.490Z,101638.66
2024-05-09T07:38:15.895Z,101655.69
2024-05-09T07:40:43.899Z,101647.66
2024-05-09T07:43:15.908Z,101648.78
2024-05-09T07:45:52.210Z,101626.72
2024-05-09T07:52:37.868Z,101666.94
2024-05-09T07:53:49.810Z,101663.81
2024-05-09T07:56:22.477Z,101666.69
2024-05-09T07:58:53.412Z,101672.09
2024-05-09T08:01:21.682Z,101670.34
2024-05-09T08:03:50.674Z,101672.09
2024-05-09T08:06:20.516Z,101687.34
2024-05-09T08:08:48.928Z,101680.63
2024-05-09T08:11:16.392Z,101654.53
2024-05-09T08:13:44.328Z,101643.72
2024-05-09T08:16:13.697Z,101685.97
2024-05-09T08:18:42.981Z,101684.44
2024-05-09T08:21:10.598Z,101690.53
2024-05-09T08:23:38.316Z,101690.72
2024-05-09T08:26:06.030Z,101685.50
2024-05-09T08:28:34.386Z,101715.91
2024-05-09T08:31:05.159Z,101704.97
2024-05-09T08:33:35.246Z,101704.97
2024-05-09T08:36:03.372Z,101702.13
2024-05-09T08:38:31.108Z,101698.03
2024-05-09T08:40:59.124Z,101696.72
2024-05-09T08:43:28.075Z,101703.41
2024-05-09T08:45:59.404Z,101694.50
2024-05-09T08:48:27.560Z,101699.44
2024-05-09T08:50:55.362Z,101694.81
2024-05-09T08:53:23.305Z,101700.06
2024-05-09T08:55:51.774Z,101715.19
2024-05-09T08:58:20.135Z,101714.69
2024-05-09T09:00:49.497Z,101707.38
2024-05-09T09:03:26.114Z,101720.25
2024-05-09T09:06:01.842Z,101720.72
2024-05-09T09:08:29.684Z,101724.41
2024-05-09T09:10:59.511Z,101721.53
2024-05-09T09:13:28.729Z,101720.56
2024-05-09T09:16:01.193Z,101727.41
2024-05-09T09:18:30.806Z,101731.38
2024-05-09T09:20:59.089Z,101726.44
2024-05-09T09:23:30.481Z,101728.03
2024-05-09T09:26:00.229Z,101724.41
2024-05-09T09:28:28.243Z,101729.13
2024-05-09T09:31:02.299Z,101729.28
2024-05-09T09:33:36.458Z,101734.88
2024-05-09T09:36:06.307Z,101725.47
2024-05-09T09:38:37.758Z,101720.22
2024-05-09T09:41:08.869Z,101735.16
2024-05-09T09:43:36.845Z,101737.41
2024-05-09T09:46:08.717Z,101734.22
2024-05-09T09:48:40.410Z,101720.53
2024-05-09T09:51:08.607Z,101727.06
2024-05-09T09:53:38.625Z,101731.84
2024-05-09T09:56:10.606Z,101730.38
2024-05-09T09:58:40.880Z,101728.00
2024-05-09T10:01:09.479Z,101733.19
2024-05-09T10:03:37.678Z,101733.50
2024-05-09T10:06:07.101Z,101717.94
2024-05-09T10:08:36.427Z,101718.34
2024-05-09T10:11:04.783Z,101699.91
2024-05-09T10:13:35.757Z,101744.88
2024-05-09T10:16:09.653Z,101714.38
2024-05-09T10:18:39.870Z,101734.53
2024-05-09T10:21:20.919Z,101729.78
2024-05-09T10:24:03.318Z,101732.50
2024-05-09T10:26:38.307Z,101726.94
2024-05-09T10:29:17.324Z,101744.72
2024-05-09T10:31:47.823Z,101736.47
2024-05-09T10:34:33.089Z,101725.16
2024-05-09T10:37:05.792Z,101730.72
2024-05-09T10:39:37.534Z,101699.13
2024-05-09T10:42:09.888Z,101729.44
2024-05-09T10:44:41.392Z,101733.25
2024-05-09T10:47:10.167Z,101737.22
2024-05-09T10:49:39.491Z,101737.03
2024-05-09T10:52:09.085Z,101728.19
2024-05-09T10:54:37.725Z,101734.69
2024-05-09T10:57:07.367Z,101735.50
2024-05-09T10:59:39.690Z,101738.03
2024-05-09T11:02:08.187Z,101731.34
2024-05-09T11:04:39.053Z,101734.19
2024-05-09T11:07:13.840Z,101746.25
2024-05-09T11:09:42.093Z,101740.38
2024-05-09T11:12:10.439Z,101739.25
2024-05-09T11:14:37.835Z,101735.47
2024-05-09T11:17:07.540Z,101733.72
2024-05-09T11:19:40.155Z,101737.06
2024-05-09T11:22:09.007Z,101735.81
2024-05-09T11:24:36.687Z,101733.75
2024-05-09T11:27:06.132Z,101729.16
2024-05-09T11:29:43.399Z,101737.91
2024-05-09T11:32:17.649Z,101732.34
2024-05-09T11:34:46.936Z,101744.06
2024-05-09T11:37:14.946Z,101725.34
2024-05-09T11:39:42.520Z,101736.44
2024-05-09T11:42:09.847Z,101739.16
2024-05-09T11:44:38.568Z,101731.84
2024-05-09T11:47:07.240Z,101734.53
2024-05-09T11:49:35.083Z,101733.91
2024-05-09T11:52:02.901Z,101731.19
2024-05-09T11:54:30.519Z,101732.63
2024-05-09T11:56:58.305Z,101728.81
2024-05-09T11:59:32.722Z,101715.47
2024-05-09T12:02:00.913Z,101724.66
2024-05-09T12:04:28.839Z,101726.25
2024-05-09T12:06:56.564Z,101730.41
2024-05-09T12:09:24.540Z,101728.50
2024-05-09T12:11:52.516Z,101720.88
2024-05-09T12:14:20.113Z,101720.25
2024-05-09T12:16:48.611Z,101721.19
2024-05-09T12:19:18.083Z,101712.31
2024-05-09T12:21:46.111Z,101722.16
2024-05-09T12:24:16.955Z,101711.66
2024-05-09T12:26:46.019Z,101712.47
2024-05-09T12:29:13.490Z,101714.69
2024-05-09T12:31:41.335Z,101706.13
2024-05-09T12:34:09.161Z,101712.00
2024-05-09T12:36:37.261Z,101718.81
2024-05-09T12:39:07.242Z,101717.53
2024-05-09T12:41:34.946Z,101717.53
2024-05-09T12:44:03.204Z,101715.94
2024-05-09T12:46:32.378Z,101725.47
2024-05-09T12:49:00.821Z,101724.84
2024-05-09T12:51:29.021Z,101708.47
2024-05-09T12:53:56.943Z,101717.03
2024-05-09T12:56:25.077Z,101711.63
2024-05-09T12:58:58.553Z,101711.13
2024-05-09T13:01:26.720Z,101716.69
2024-05-09T13:03:54.429Z,101678.56
2024-05-09T13:06:23.309Z,101706.53
2024-05-09T13:08:50.731Z,101713.06
2024-05-09T13:11:18.586Z,101715.75
2024-05-09T13:13:46.621Z,101707.03
2024-05-09T13:16:14.286Z,101716.56
2024-05-09T13:18:42.218Z,101705.44
2024-05-09T13:21:09.920Z,101707.03
2024-05-09T13:23:39.137Z,101704.63
2024-05-09T13:26:06.649Z,101698.56
2024-05-09T13:28:34.576Z,101696.00
2024-05-09T13:31:02.252Z,101700.00
2024-05-09T13:33:29.930Z,101698.84
2024-05-09T13:35:58.254Z,101677.22
2024-05-09T13:38:26.900Z,101699.19
2024-05-09T13:40:54.469Z,101696.00
2024-05-09T13:43:23.839Z,101693.16
2024-05-09T13:45:52.697Z,101700.31
2024-05-09T13:48:21.041Z,101697.91
2024-05-09T13:50:48.996Z,101700.63
2024-05-09T13:53:16.427Z,101696.38
2024-05-09T13:55:44.153Z,101690.00
2024-05-09T13:58:11.718Z,101693.94
2024-05-09T14:00:46.311Z,101695.41
2024-05-09T14:03:19.441Z,101687.97
2024-05-09T14:05:50.115Z,101695.13
2024-05-09T14:08:20.313Z,101688.13
2024-05-09T14:10:49.995Z,101685.88
2024-05-09T14:13:18.002Z,101676.31
2024-05-09T14:15:46.861Z,101690.94
2024-05-09T14:18:15.726Z,101685.38
2024-05-09T14:20:43.537Z,101695.66
2024-05-09T14:23:11.461Z,101689.00
2024-05-09T14:25:42.651Z,101691.56
2024-05-09T14:28:13.011Z,101688.41
2024-05-09T14:30:41.917Z,101676.34
2024-05-09T14:33:10.014Z,101684.88
2024-05-09T14:35:39.197Z,101688.69
2024-05-09T14:38:08.825Z,101689.78
2024-05-09T14:40:42.179Z,101676.16
2024-05-09T14:43:13.652Z,101691.28
2024-05-09T14:45:43.775Z,101680.97
2024-05-09T14:48:15.165Z,101683.00
2024-05-09T14:50:43.692Z,101686.34
2024-05-09T14:53:13.206Z,101678.41
2024-05-09T14:55:43.549Z,101686.81
2024-05-09T14:58:12.577Z,101689.84
2024-05-09T15:00:46.325Z,101684.88
2024-05-09T15:03:22.241Z,101679.22
2024-05-09T15:05:51.667Z,101681.09
2024-05-09T15:08:20.317Z,101685.72
2024-05-09T15:10:50.253Z,101681.09
2024-05-09T15:13:19.542Z,101671.88
2024-05-09T15:15:48.679Z,101672.84
2024-05-09T15:18:16.943Z,101673.97
2024-05-09T15:20:45.274Z,101682.38
2024-05-09T15:23:13.476Z,101673.81
2024-05-09T15:25:41.290Z,101667.16
2024-05-09T15:28:09.975Z,101685.28
2024-05-09T15:30:37.861Z,101678.59
2024-05-09T15:33:07.407Z,101669.84
2024-05-09T15:35:36.236Z,101671.31
2024-05-09T15:38:04.586Z,101661.25
2024-05-09T15:40:39.063Z,101684.97
2024-05-09T15:43:10.526Z,101674.47
2024-05-09T15:45:41.447Z,101673.50
2024-05-09T15:48:10.742Z,101672.69
2024-05-09T15:50:41.332Z,101667.59
2024-05-09T15:53:12.299Z,101672.22
2024-05-09T15:55:40.875Z,101668.09
2024-05-09T15:58:08.774Z,101652.34
2024-05-09T16:00:40.283Z,101656.16
2024-05-09T16:03:13.027Z,101672.69
2024-05-09T16:05:43.635Z,101669.84
2024-05-09T16:08:12.597Z,101676.81
2024-05-09T16:10:44.630Z,101673.63
2024-05-09T16:13:13.289Z,101674.13
2024-05-09T16:15:41.135Z,101677.28
2024-05-09T16:18:09.000Z,101674.94
2024-05-09T16:20:40.404Z,101673.94
2024-05-09T16:23:10.537Z,101668.09
2024-05-09T16:25:41.993Z,101671.75
2024-05-09T16:28:10.851Z,101671.28
2024-05-09T16:30:39.696Z,101665.56
2024-05-09T16:33:08.530Z,101669.38
2024-05-09T16:35:38.023Z,101671.31
2024-05-09T16:38:06.541Z,101670.63
2024-05-09T16:40:38.939Z,101672.88
2024-05-09T16:43:10.679Z,101657.78
2024-05-09T16:45:44.993Z,101677.66
2024-05-09T16:48:13.559Z,101672.25
2024-05-09T16:50:41.098Z,101678.59
2024-05-09T16:53:08.950Z,101683.19
2024-05-09T16:55:36.926Z,101684.63
2024-05-09T16:58:06.913Z,101681.59
2024-05-09T17:00:41.065Z,101688.91
2024-05-09T17:03:15.720Z,101695.13
2024-05-09T17:05:46.579Z,101694.81
2024-05-09T17:08:20.056Z,101690.69
2024-05-09T17:10:49.527Z,101704.50
2024-05-09T17:13:17.709Z,101700.88
2024-05-09T17:15:45.656Z,101703.06
2024-05-09T17:18:13.390Z,101708.81
2024-05-09T17:20:41.253Z,101706.41
2024-05-09T17:23:14.742Z,101694.50
2024-05-09T17:25:42.897Z,101699.41
2024-05-09T17:28:10.876Z,101700.38
2024-05-09T17:30:40.731Z,101706.88
2024-05-09T17:33:10.796Z,101704.81
2024-05-09T17:35:39.306Z,101704.66
2024-05-09T17:38:06.918Z,101699.91
2024-05-09T17:40:36.908Z,101709.28
2024-05-09T17:43:08.444Z,101696.06
2024-05-09T17:45:41.164Z,101697.34
2024-05-09T17:48:11.487Z,101698.00
2024-05-09T17:50:41.704Z,101704.66
2024-05-09T17:53:11.142Z,101699.91
2024-05-09T17:55:40.248Z,101699.75
2024-05-09T17:58:09.042Z,101695.94
2024-05-09T18:00:40.089Z,101698.63
2024-05-09T18:03:14.756Z,101688.78
2024-05-09T18:05:44.140Z,101691.31
2024-05-09T18:08:12.739Z,101688.47
2024-05-09T18:10:41.434Z,101705.47
2024-05-09T18:13:10.606Z,101707.19
2024-05-09T18:15:39.900Z,101711.00
2024-05-09T18:18:09.464Z,101707.22
2024-05-09T18:20:43.125Z,101707.53
2024-05-09T18:23:18.319Z,101712.13
2024-05-09T18:25:47.271Z,101721.66
2024-05-09T18:28:17.208Z,101718.03
2024-05-09T18:30:46.081Z,101718.34
2024-05-09T18:33:14.286Z,101727.38
2024-05-09T18:35:44.359Z,101726.13
2024-05-09T18:38:12.226Z,101732.97
2024-05-09T18:40:43.559Z,101731.69
2024-05-09T18:43:12.538Z,101728.84
2024-05-09T18:45:40.460Z,101743.13
2024-05-09T18:48:10.895Z,101747.91
2024-05-09T18:50:41.569Z,101740.09
2024-05-09T18:53:11.952Z,101745.03
2024-05-09T18:55:41.647Z,101739.31
2024-05-09T18:58:09.376Z,101739.63
2024-05-09T19:00:40.311Z,101747.75
2024-05-09T19:03:12.809Z,101749.16
2024-05-09T19:05:43.683Z,101735.97
2024-05-09T19:08:12.773Z,101748.53
2024-05-09T19:10:40.796Z,101749.34
2024-05-09T19:13:12.204Z,101743.78
2024-05-09T19:15:42.510Z,101754.56
2024-05-09T19:18:12.870Z,101768.25
2024-05-09T19:20:41.483Z,101769.22
2024-05-09T19:23:09.799Z,101769.34
2024-05-09T19:25:37.765Z,101769.22
2024-05-09T19:28:05.912Z,101783.66
2024-05-09T19:30:39.762Z,101775.22
2024-05-09T19:33:13.501Z,101780.78
2024-05-09T19:35:44.372Z,101781.28
2024-05-09T19:38:14.091Z,101776.97
2024-05-09T19:40:43.144Z,101779.50
2024-05-09T19:43:12.463Z,101777.28
2024-05-09T19:45:41.668Z,101785.72
2024-05-09T19:48:11.397Z,101774.75
2024-05-09T19:50:43.772Z,101776.19
2024-05-09T19:53:13.144Z,101776.50
2024-05-09T19:55:42.167Z,101787.63
2024-05-09T19:58:10.647Z,101773.66
2024-05-09T20:00:41.802Z,101769.34
2024-05-09T20:03:15.671Z,101767.94
2024-05-09T20:05:47.540Z,101766.66
2024-05-09T20:08:15.848Z,101769.84
2024-05-09T20:10:44.275Z,101781.75
2024-05-09T20:13:12.443Z,101779.19
2024-05-09T20:15:40.207Z,101777.78
2024-05-09T20:18:08.343Z,101766.00
2024-05-09T20:20:40.407Z,101769.22
2024-05-09T20:23:14.985Z,101782.72
2024-05-09T20:25:44.825Z,101776.66
2024-05-09T20:28:12.648Z,101784.44
2024-05-09T20:30:41.414Z,101780.81
2024-05-09T20:33:10.457Z,101777.31
2024-05-09T20:35:38.740Z,101779.19
2024-05-09T20:38:07.760Z,101787.66
2024-05-09T20:40:38.979Z,101783.50
2024-05-09T20:43:11.571Z,101782.06
2024-05-09T20:45:40.732Z,101781.59
2024-05-09T20:48:10.102Z,101785.09
2024-05-09T20:50:42.114Z,101793.69
2024-05-09T20:53:14.886Z,101786.69
2024-05-09T20:55:44.907Z,101796.38
2024-05-09T20:58:14.664Z,101780.66
2024-05-09T21:00:45.857Z,101785.09
2024-05-09T21:03:17.763Z,101780.63
2024-05-09T21:05:47.774Z,101790.97
2024-05-09T21:08:16.989Z,101795.28
2024-05-09T21:10:48.378Z,101795.91
2024-05-09T21:13:19.264Z,101783.19
2024-05-09T21:15:47.915Z,101786.81
2024-05-09T21:18:16.186Z,101799.72
2024-05-09T21:20:45.119Z,101778.72
2024-05-09T21:23:13.981Z,101787.94
2024-05-09T21:25:42.124Z,101782.72
2024-05-09T21:28:11.020Z,101787.63
2024-05-09T21:30:42.659Z,101777.44
2024-05-09T21:33:14.220Z,101782.53
2024-05-09T21:35:44.851Z,101780.94
2024-05-09T21:38:15.620Z,101788.41
2024-05-09T21:40:45.527Z,101790.16
2024-05-09T21:43:14.954Z,101788.56
2024-05-09T21:45:43.856Z,101783.50
2024-05-09T21:48:13.097Z,101793.81
2024-05-09T21:50:42.441Z,101791.47
2024-05-09T21:53:13.190Z,101789.69
2024-05-09T21:55:43.070Z,101799.38
2024-05-09T21:58:14.256Z,101799.53
2024-05-09T22:00:46.615Z,101793.81
2024-05-09T22:03:15.049Z,101794.47
2024-05-09T22:05:44.882Z,101796.38
2024-05-09T22:08:12.794Z,101788.59
2024-05-09T22:10:42.336Z,101790.63
2024-05-09T22:13:10.571Z,101783.84
2024-05-09T22:15:40.598Z,101781.28
2024-05-09T22:18:11.023Z,101790.97
2024-05-09T22:20:47.908Z,101791.44
2024-05-09T22:23:18.833Z,101777.00
2024-05-09T22:25:46.333Z,101739.00
2024-05-09T22:28:16.358Z,101784.47
2024-05-09T22:30:46.504Z,101788.91
2024-05-09T22:33:16.141Z,101775.03
2024-05-09T22:35:44.236Z,101787.59
2024-05-09T22:38:11.722Z,101775.03
2024-05-09T22:40:47.409Z,101783.63
2024-05-09T22:43:23.674Z,101792.38
2024-05-09T22:45:56.619Z,101785.56
2024-05-09T22:48:25.799Z,101790.63
2024-05-09T22:50:54.377Z,101786.47
2024-05-09T22:53:27.171Z,101788.69
2024-05-09T22:55:55.797Z,101798.41
2024-05-09T22:58:24.664Z,101792.66
2024-05-09T23:00:53.966Z,101775.66
2024-05-09T23:03:23.016Z,101793.59
2024-05-09T23:05:51.096Z,101790.75
2024-05-09T23:08:19.238Z,101787.56
2024-05-09T23:10:47.885Z,101786.91
2024-05-09T23:13:15.853Z,101786.91
2024-05-09T23:15:43.664Z,101788.66
2024-05-09T23:18:12.061Z,101777.38
2024-05-09T23:20:40.312Z,101777.66
2024-05-09T23:23:08.842Z,101775.28
2024-05-09T23:25:37.622Z,101748.50
2024-05-09T23:28:06.324Z,101782.44
2024-05-09T23:30:39.872Z,101779.88
2024-05-09T23:33:12.399Z,101777.50
2024-05-09T23:35:43.111Z,101774.19
2024-05-09T23:38:12.032Z,101775.16
2024-05-09T23:40:41.444Z,101753.22
2024-05-09T23:43:12.557Z,101764.66
2024-05-09T23:45:41.530Z,101753.22
2024-05-09T23:48:10.260Z,101762.25
2024-05-09T23:50:40.139Z,101760.84
2024-05-09T23:53:11.680Z,101757.31
2024-05-09T23:55:39.904Z,101750.63
2024-05-09T23:58:08.590Z,101759.22
